createdAt,value
2023-10-20T00:00:04.923Z,981.89
2023-10-20T00:01:04.953Z,981.91
2023-10-20T00:02:04.993Z,981.88
2023-10-20T00:03:04.955Z,981.87
2023-10-20T00:04:04.953Z,981.87
2023-10-20T00:05:04.929Z,981.85
2023-10-20T00:06:04.902Z,981.89
2023-10-20T00:07:04.897Z,981.89
2023-10-20T00:08:05.133Z,981.86
2023-10-20T00:09:04.887Z,981.92
2023-10-20T00:10:04.974Z,981.86
2023-10-20T00:11:04.908Z,981.86
2023-10-20T00:12:04.887Z,981.83
2023-10-20T00:13:04.898Z,981.84
2023-10-20T00:14:04.900Z,981.81
2023-10-20T00:15:04.882Z,981.75
2023-10-20T00:16:04.901Z,981.76
2023-10-20T00:17:04.892Z,981.74
2023-10-20T00:18:04.905Z,981.75
2023-10-20T00:19:04.870Z,981.75
2023-10-20T00:20:04.890Z,981.72
2023-10-20T00:21:04.867Z,981.68
2023-10-20T00:22:04.889Z,981.71
2023-10-20T00:23:04.902Z,981.69
2023-10-20T00:24:04.859Z,981.62
2023-10-20T00:25:04.848Z,981.66
2023-10-20T00:26:04.919Z,981.64
2023-10-20T00:27:04.842Z,981.58
2023-10-20T00:28:04.841Z,981.60
2023-10-20T00:29:04.897Z,981.56
2023-10-20T00:30:04.837Z,981.54
2023-10-20T00:31:04.930Z,981.55
2023-10-20T00:32:04.894Z,981.54
2023-10-20T00:33:04.850Z,981.54
2023-10-20T00:34:04.861Z,981.56
2023-10-20T00:35:04.864Z,981.55
2023-10-20T00:36:04.824Z,981.53
2023-10-20T00:37:04.828Z,981.51
2023-10-20T00:38:04.884Z,981.53
2023-10-20T00:39:04.810Z,981.49
2023-10-20T00:40:04.828Z,981.46
2023-10-20T00:41:04.840Z,981.44
2023-10-20T00:42:04.829Z,981.41
2023-10-20T00:43:04.801Z,981.40
2023-10-20T00:44:04.820Z,981.36
2023-10-20T00:45:04.794Z,981.37
2023-10-20T00:46:04.821Z,981.30
2023-10-20T00:47:04.848Z,981.31
2023-10-20T00:48:04.861Z,981.23
2023-10-20T00:49:04.810Z,981.23
2023-10-20T00:50:04.803Z,981.14
2023-10-20T00:51:04.779Z,981.10
2023-10-20T00:52:04.779Z,981.04
2023-10-20T00:53:04.878Z,981.01
2023-10-20T00:54:04.785Z,980.97
2023-10-20T00:55:04.774Z,980.96
2023-10-20T00:56:04.779Z,980.93
2023-10-20T00:57:04.762Z,980.93
2023-10-20T00:58:04.795Z,980.87
2023-10-20T00:59:04.800Z,980.88
2023-10-20T01:00:04.761Z,980.86
2023-10-20T01:01:04.761Z,980.79
2023-10-20T01:02:04.820Z,980.75
2023-10-20T01:03:04.832Z,980.73
2023-10-20T01:04:04.812Z,980.76
2023-10-20T01:05:04.833Z,980.77
2023-10-20T01:06:04.739Z,980.79
2023-10-20T01:07:04.730Z,980.79
2023-10-20T01:08:04.826Z,980.77
2023-10-20T01:09:04.742Z,980.75
2023-10-20T01:10:04.736Z,980.73
2023-10-20T01:11:04.835Z,980.75
2023-10-20T01:12:04.723Z,980.78
2023-10-20T01:13:04.718Z,980.76
2023-10-20T01:14:04.797Z,980.75
2023-10-20T01:15:04.714Z,980.77
2023-10-20T01:16:04.783Z,980.76
2023-10-20T01:17:04.748Z,980.75
2023-10-20T01:18:04.746Z,980.75
2023-10-20T01:19:04.706Z,980.73
2023-10-20T01:20:04.760Z,980.74
2023-10-20T01:21:04.700Z,980.73
2023-10-20T01:22:04.707Z,980.73
2023-10-20T01:23:04.733Z,980.69
2023-10-20T01:24:04.695Z,980.68
2023-10-20T01:25:04.695Z,980.67
2023-10-20T01:26:04.734Z,980.63
2023-10-20T01:27:04.682Z,980.66
2023-10-20T01:28:04.677Z,980.63
2023-10-20T01:29:04.717Z,980.66
2023-10-20T01:30:04.697Z,980.64
2023-10-20T01:31:04.677Z,980.64
2023-10-20T01:32:04.739Z,980.66
2023-10-20T01:33:04.748Z,980.64
2023-10-20T01:34:04.698Z,980.65
2023-10-20T01:35:04.705Z,980.59
2023-10-20T01:36:04.654Z,980.60
2023-10-20T01:37:04.653Z,980.59
2023-10-20T01:38:04.664Z,980.61
2023-10-20T01:39:04.639Z,980.59
2023-10-20T01:40:04.648Z,980.53
2023-10-20T01:41:04.674Z,980.54
2023-10-20T01:42:04.643Z,980.48
2023-10-20T01:43:04.643Z,980.50
2023-10-20T01:44:04.671Z,980.45
2023-10-20T01:45:04.630Z,980.44
2023-10-20T01:46:04.654Z,980.42
2023-10-20T01:47:04.778Z,980.46
2023-10-20T01:48:04.725Z,980.44
2023-10-20T01:49:04.620Z,980.42
2023-10-20T01:50:04.700Z,980.36
2023-10-20T01:51:04.615Z,980.37
2023-10-20T01:52:04.662Z,980.31
2023-10-20T01:53:04.637Z,980.32
2023-10-20T01:54:04.609Z,980.33
2023-10-20T01:55:04.679Z,980.31
2023-10-20T01:56:04.641Z,980.29
2023-10-20T01:57:04.598Z,980.19
2023-10-20T01:58:04.601Z,980.15
2023-10-20T01:59:04.612Z,980.13
2023-10-20T02:00:04.593Z,980.12
2023-10-20T02:01:04.610Z,980.08
2023-10-20T02:02:04.698Z,980.06
2023-10-20T02:03:04.710Z,980.04
2023-10-20T02:04:04.680Z,980.00
2023-10-20T02:05:04.620Z,979.95
2023-10-20T02:06:04.574Z,979.96
2023-10-20T02:07:04.600Z,979.93
2023-10-20T02:08:04.595Z,979.93
2023-10-20T02:09:04.564Z,979.88
2023-10-20T02:10:04.578Z,979.82
2023-10-20T02:11:04.584Z,979.78
2023-10-20T02:12:04.561Z,979.83
2023-10-20T02:13:04.562Z,979.77
2023-10-20T02:14:04.619Z,979.75
2023-10-20T02:15:04.571Z,979.75
2023-10-20T02:16:04.548Z,979.74
2023-10-20T02:17:04.621Z,979.71
2023-10-20T02:18:04.633Z,979.67
2023-10-20T02:19:04.553Z,979.68
2023-10-20T02:20:04.640Z,979.62
2023-10-20T02:21:04.551Z,979.60
2023-10-20T02:22:04.532Z,979.59
2023-10-20T02:23:04.545Z,979.54
2023-10-20T02:24:04.528Z,979.59
2023-10-20T02:25:04.531Z,979.56
2023-10-20T02:26:04.545Z,979.59
2023-10-20T02:27:04.522Z,979.58
2023-10-20T02:28:04.518Z,979.56
2023-10-20T02:29:04.569Z,979.53
2023-10-20T02:30:04.506Z,979.51
2023-10-20T02:31:04.525Z,979.46
2023-10-20T02:32:04.562Z,979.42
2023-10-20T02:33:04.537Z,979.38
2023-10-20T02:34:04.523Z,979.36
2023-10-20T02:35:04.555Z,979.34
2023-10-20T02:36:04.489Z,979.28
2023-10-20T02:37:04.512Z,979.31
2023-10-20T02:38:04.516Z,979.24
2023-10-20T02:39:04.483Z,979.15
2023-10-20T02:40:04.490Z,979.11
2023-10-20T02:41:04.522Z,979.08
2023-10-20T02:42:04.495Z,979.10
2023-10-20T02:43:04.495Z,979.10
2023-10-20T02:44:04.499Z,979.13
2023-10-20T02:45:04.473Z,979.17
2023-10-20T02:46:04.462Z,979.10
2023-10-20T02:47:04.524Z,979.10
2023-10-20T02:48:04.519Z,979.08
2023-10-20T02:49:04.456Z,979.03
2023-10-20T02:50:04.560Z,979.03
2023-10-20T02:51:04.459Z,979.02
2023-10-20T02:52:04.449Z,978.99
2023-10-20T02:53:04.487Z,978.98
2023-10-20T02:54:04.460Z,978.97
2023-10-20T02:55:04.444Z,978.91
2023-10-20T02:56:04.471Z,978.90
2023-10-20T02:57:04.443Z,978.85
2023-10-20T02:58:04.446Z,978.78
2023-10-20T02:59:04.443Z,978.79
2023-10-20T03:00:04.428Z,978.79
2023-10-20T03:01:04.468Z,978.80
2023-10-20T03:02:04.512Z,978.80
2023-10-20T03:03:04.566Z,978.79
2023-10-20T03:04:04.658Z,978.77
2023-10-20T03:05:04.532Z,978.74
2023-10-20T03:06:04.429Z,978.67
2023-10-20T03:07:04.416Z,978.61
2023-10-20T03:08:04.454Z,978.51
2023-10-20T03:09:04.446Z,978.43
2023-10-20T03:10:04.414Z,978.37
2023-10-20T03:11:04.449Z,978.33
2023-10-20T03:12:04.401Z,978.29
2023-10-20T03:13:04.398Z,978.30
2023-10-20T03:14:04.400Z,978.26
2023-10-20T03:15:04.400Z,978.19
2023-10-20T03:16:04.420Z,978.17
2023-10-20T03:17:04.434Z,978.18
2023-10-20T03:18:04.401Z,978.21
2023-10-20T03:19:04.375Z,978.27
2023-10-20T03:20:04.400Z,978.28
2023-10-20T03:21:04.403Z,978.26
2023-10-20T03:22:04.382Z,978.29
2023-10-20T03:23:04.390Z,978.27
2023-10-20T03:24:04.357Z,978.23
2023-10-20T03:25:04.371Z,978.15
2023-10-20T03:26:04.530Z,978.14
2023-10-20T03:27:04.413Z,978.12
2023-10-20T03:28:04.366Z,978.14
2023-10-20T03:29:04.364Z,978.17
2023-10-20T03:30:04.347Z,978.22
2023-10-20T03:31:04.483Z,978.20
2023-10-20T03:32:04.359Z,978.24
2023-10-20T03:33:04.356Z,978.17
2023-10-20T03:34:04.335Z,978.10
2023-10-20T03:35:04.366Z,978.07
2023-10-20T03:36:04.335Z,978.05
2023-10-20T03:37:04.331Z,978.06
2023-10-20T03:38:04.386Z,978.03
2023-10-20T03:39:04.361Z,978.07
2023-10-20T03:40:04.331Z,978.06
2023-10-20T03:41:04.311Z,978.09
2023-10-20T03:42:04.312Z,978.14
2023-10-20T03:43:04.316Z,978.16
2023-10-20T03:44:04.331Z,978.15
2023-10-20T03:45:04.328Z,978.18
2023-10-20T03:46:04.324Z,978.16
2023-10-20T03:47:04.305Z,978.12
2023-10-20T03:48:04.384Z,978.02
2023-10-20T03:49:04.298Z,977.93
2023-10-20T03:50:04.343Z,977.82
2023-10-20T03:51:04.294Z,977.84
2023-10-20T03:52:04.277Z,977.79
2023-10-20T03:53:04.289Z,977.75
2023-10-20T03:54:04.300Z,977.71
2023-10-20T03:55:04.282Z,977.66
2023-10-20T03:56:04.370Z,977.63
2023-10-20T03:57:04.271Z,977.63
2023-10-20T03:58:04.261Z,977.64
2023-10-20T03:59:04.297Z,977.62
2023-10-20T04:00:04.270Z,977.63
2023-10-20T04:01:04.251Z,977.63
2023-10-20T04:02:04.392Z,977.69
2023-10-20T04:03:04.342Z,977.68
2023-10-20T04:04:04.278Z,977.66
2023-10-20T04:05:04.274Z,977.69
2023-10-20T04:06:04.240Z,977.62
2023-10-20T04:07:04.237Z,977.53
2023-10-20T04:08:04.255Z,977.41
2023-10-20T04:09:04.230Z,977.39
2023-10-20T04:10:04.257Z,977.36
2023-10-20T04:11:04.286Z,977.38
2023-10-20T04:12:04.220Z,977.43
2023-10-20T04:13:04.217Z,977.45
2023-10-20T04:14:04.261Z,977.48
2023-10-20T04:15:04.232Z,977.46
2023-10-20T04:16:04.287Z,977.42
2023-10-20T04:17:04.254Z,977.36
2023-10-20T04:18:04.300Z,977.32
2023-10-20T04:19:04.198Z,977.25
2023-10-20T04:20:04.239Z,977.20
2023-10-20T04:21:04.213Z,977.20
2023-10-20T04:22:04.203Z,977.17
2023-10-20T04:23:04.226Z,977.21
2023-10-20T04:24:04.185Z,977.23
2023-10-20T04:25:04.189Z,977.26
2023-10-20T04:26:04.234Z,977.22
2023-10-20T04:27:05.890Z,977.25
2023-10-20T04:28:04.177Z,977.17
2023-10-20T04:29:04.244Z,977.15
2023-10-20T04:30:04.176Z,977.04
2023-10-20T04:31:04.166Z,976.88
2023-10-20T04:32:04.224Z,976.84
2023-10-20T04:33:04.198Z,976.76
2023-10-20T04:34:04.157Z,976.69
2023-10-20T04:35:04.290Z,976.66
2023-10-20T04:36:04.146Z,976.64
2023-10-20T04:37:05.507Z,976.58
2023-10-20T04:38:04.205Z,976.60
2023-10-20T04:39:04.137Z,976.58
2023-10-20T04:40:04.218Z,976.53
2023-10-20T04:41:04.153Z,976.47
2023-10-20T04:42:04.147Z,976.42
2023-10-20T04:43:04.125Z,976.37
2023-10-20T04:44:04.161Z,976.39
2023-10-20T04:45:04.137Z,976.37
2023-10-20T04:46:04.214Z,976.43
2023-10-20T04:47:04.137Z,976.46
2023-10-20T04:48:04.185Z,976.44
2023-10-20T04:49:04.110Z,976.43
2023-10-20T04:50:04.298Z,976.40
2023-10-20T04:51:04.107Z,976.38
2023-10-20T04:52:04.104Z,976.31
2023-10-20T04:53:04.117Z,976.28
2023-10-20T04:54:04.095Z,976.22
2023-10-20T04:55:04.090Z,976.15
2023-10-20T04:56:04.116Z,976.07
2023-10-20T04:57:04.083Z,976.01
2023-10-20T04:58:04.103Z,975.97
2023-10-20T04:59:04.109Z,975.95
2023-10-20T05:00:04.078Z,975.92
2023-10-20T05:01:04.105Z,975.94
2023-10-20T05:02:04.124Z,975.86
2023-10-20T05:03:04.123Z,975.84
2023-10-20T05:04:04.092Z,975.84
2023-10-20T05:05:04.096Z,975.88
2023-10-20T05:06:04.057Z,975.90
2023-10-20T05:07:04.058Z,975.82
2023-10-20T05:08:04.089Z,975.84
2023-10-20T05:09:04.056Z,975.83
2023-10-20T05:10:04.060Z,975.83
2023-10-20T05:11:04.095Z,975.80
2023-10-20T05:12:04.067Z,975.80
2023-10-20T05:13:04.048Z,975.75
2023-10-20T05:14:04.153Z,975.76
2023-10-20T05:15:04.040Z,975.70
2023-10-20T05:16:04.046Z,975.75
2023-10-20T05:17:04.064Z,975.77
2023-10-20T05:18:04.133Z,975.70
2023-10-20T05:19:04.029Z,975.70
2023-10-20T05:20:04.077Z,975.64
2023-10-20T05:21:04.013Z,975.63
2023-10-20T05:22:04.010Z,975.63
2023-10-20T05:23:04.006Z,975.62
2023-10-20T05:24:04.007Z,975.57
2023-10-20T05:25:04.008Z,975.52
2023-10-20T05:26:04.011Z,975.50
2023-10-20T05:27:03.999Z,975.47
2023-10-20T05:28:03.983Z,975.44
2023-10-20T05:29:03.997Z,975.34
2023-10-20T05:30:04.014Z,975.28
2023-10-20T05:31:04.038Z,975.22
2023-10-20T05:32:03.988Z,975.22
2023-10-20T05:33:04.048Z,975.23
2023-10-20T05:34:03.997Z,975.17
2023-10-20T05:35:03.974Z,975.16
2023-10-20T05:36:03.997Z,975.23
2023-10-20T05:37:03.984Z,975.26
2023-10-20T05:38:03.980Z,975.24
2023-10-20T05:39:03.980Z,975.25
2023-10-20T05:40:03.985Z,975.28
2023-10-20T05:41:03.978Z,975.30
2023-10-20T05:42:03.974Z,975.35
2023-10-20T05:43:03.970Z,975.39
2023-10-20T05:44:04.000Z,975.40
2023-10-20T05:45:04.044Z,975.33
2023-10-20T05:46:04.020Z,975.32
2023-10-20T05:47:03.964Z,975.29
2023-10-20T05:48:04.079Z,975.25
2023-10-20T05:49:04.196Z,975.26
2023-10-20T05:50:03.958Z,975.32
2023-10-20T05:51:03.984Z,975.30
2023-10-20T05:52:03.954Z,975.32
2023-10-20T05:53:04.046Z,975.27
2023-10-20T05:54:03.961Z,975.26
2023-10-20T05:55:03.990Z,975.23
2023-10-20T05:56:03.966Z,975.23
2023-10-20T05:57:03.948Z,975.15
2023-10-20T05:58:03.952Z,975.18
2023-10-20T05:59:03.944Z,975.17
2023-10-20T06:00:03.943Z,975.20
2023-10-20T06:01:03.954Z,975.17
2023-10-20T06:02:03.959Z,975.15
2023-10-20T06:03:04.641Z,975.21
2023-10-20T06:04:04.043Z,975.25
2023-10-20T06:05:03.925Z,975.25
2023-10-20T06:06:03.921Z,975.28
2023-10-20T06:07:03.923Z,975.25
2023-10-20T06:08:03.914Z,975.26
2023-10-20T06:09:03.917Z,975.24
2023-10-20T06:10:03.967Z,975.21
2023-10-20T06:11:04.209Z,975.15
2023-10-20T06:12:03.906Z,975.13
2023-10-20T06:13:03.902Z,975.14
2023-10-20T06:14:03.905Z,975.12
2023-10-20T06:15:03.901Z,975.09
2023-10-20T06:16:03.966Z,975.06
2023-10-20T06:17:03.917Z,975.10
2023-10-20T06:18:04.001Z,975.15
2023-10-20T06:19:03.925Z,975.14
2023-10-20T06:20:03.894Z,975.13
2023-10-20T06:21:03.890Z,975.11
2023-10-20T06:22:03.892Z,975.17
2023-10-20T06:23:03.889Z,975.16
2023-10-20T06:24:03.886Z,975.21
2023-10-20T06:25:03.891Z,975.22
2023-10-20T06:26:03.875Z,975.21
2023-10-20T06:27:04.344Z,975.25
2023-10-20T06:28:03.870Z,975.25
2023-10-20T06:29:03.861Z,975.19
2023-10-20T06:30:03.867Z,975.17
2023-10-20T06:31:03.856Z,975.17
2023-10-20T06:32:03.857Z,975.17
2023-10-20T06:33:03.914Z,975.18
2023-10-20T06:34:03.871Z,975.17
2023-10-20T06:35:03.844Z,975.18
2023-10-20T06:36:03.840Z,975.12
2023-10-20T06:37:03.832Z,975.11
2023-10-20T06:38:03.842Z,975.11
2023-10-20T06:39:03.835Z,975.09
2023-10-20T06:40:03.842Z,975.08
2023-10-20T06:41:03.820Z,975.11
2023-10-20T06:42:03.832Z,975.11
2023-10-20T06:43:03.852Z,975.08
2023-10-20T06:44:03.821Z,975.05
2023-10-20T06:45:03.843Z,975.02
2023-10-20T06:46:03.870Z,975.02
2023-10-20T06:47:03.820Z,974.99
2023-10-20T06:48:03.929Z,974.99
2023-10-20T06:49:03.828Z,975.01
2023-10-20T06:50:03.822Z,975.03
2023-10-20T06:51:03.797Z,975.05
2023-10-20T06:52:03.805Z,975.09
2023-10-20T06:53:03.800Z,975.10
2023-10-20T06:54:03.802Z,975.09
2023-10-20T06:55:30.884Z,975.08
2023-10-20T06:56:14.391Z,975.07
2023-10-20T06:57:03.796Z,975.09
2023-10-20T06:58:03.783Z,975.06
2023-10-20T06:59:03.781Z,975.04
2023-10-20T07:00:03.778Z,975.02
2023-10-20T07:01:03.803Z,975.03
2023-10-20T07:02:03.777Z,975.07
2023-10-20T07:03:03.826Z,975.07
2023-10-20T07:04:03.825Z,975.10
2023-10-20T07:05:03.776Z,975.11
2023-10-20T07:06:03.790Z,975.07
2023-10-20T07:07:03.761Z,975.04
2023-10-20T07:08:03.765Z,975.03
2023-10-20T07:09:03.812Z,975.01
2023-10-20T07:10:03.760Z,974.99
2023-10-20T07:11:03.841Z,974.97
2023-10-20T07:12:03.757Z,974.98
2023-10-20T07:13:03.764Z,974.96
2023-10-20T07:14:03.748Z,974.94
2023-10-20T07:15:03.771Z,974.91
2023-10-20T07:16:03.839Z,974.86
2023-10-20T07:17:03.751Z,974.87
2023-10-20T07:18:03.854Z,974.90
2023-10-20T07:19:03.738Z,974.96
2023-10-20T07:20:03.732Z,974.93
2023-10-20T07:21:03.769Z,974.92
2023-10-20T07:22:03.763Z,974.95
2023-10-20T07:23:03.718Z,974.91
2023-10-20T07:24:03.713Z,974.89
2023-10-20T07:25:03.719Z,974.90
2023-10-20T07:26:03.760Z,974.93
2023-10-20T07:27:03.718Z,974.89
2023-10-20T07:28:03.709Z,974.87
2023-10-20T07:29:03.704Z,974.88
2023-10-20T07:30:03.777Z,974.87
2023-10-20T07:31:03.724Z,974.86
2023-10-20T07:32:03.713Z,974.82
2023-10-20T07:33:03.875Z,974.84
2023-10-20T07:34:03.728Z,974.87
2023-10-20T07:35:03.687Z,974.87
2023-10-20T07:36:03.694Z,974.88
2023-10-20T07:37:03.701Z,974.88
2023-10-20T07:38:03.725Z,974.91
2023-10-20T07:39:03.677Z,974.93
2023-10-20T07:40:03.679Z,974.98
2023-10-20T07:41:03.699Z,974.97
2023-10-20T07:42:03.683Z,974.97
2023-10-20T07:43:03.674Z,975.01
2023-10-20T07:44:03.674Z,975.01
2023-10-20T07:45:03.664Z,974.99
2023-10-20T07:46:03.724Z,975.04
2023-10-20T07:47:03.665Z,975.04
2023-10-20T07:48:03.716Z,975.05
2023-10-20T07:49:03.665Z,975.06
2023-10-20T07:50:03.669Z,975.05
2023-10-20T07:51:03.711Z,975.05
2023-10-20T07:52:03.644Z,975.04
2023-10-20T07:53:03.644Z,974.98
2023-10-20T07:54:03.665Z,974.97
2023-10-20T07:55:03.644Z,974.98
2023-10-20T07:56:03.753Z,974.99
2023-10-20T07:57:03.741Z,975.01
2023-10-20T07:58:03.635Z,975.01
2023-10-20T07:59:03.628Z,975.00
2023-10-20T08:00:03.637Z,975.01
2023-10-20T08:01:03.676Z,975.01
2023-10-20T08:02:03.627Z,975.03
2023-10-20T08:03:03.787Z,975.05
2023-10-20T08:04:04.211Z,975.04
2023-10-20T08:05:03.830Z,974.97
2023-10-20T08:07:04.038Z,974.99
2023-10-20T08:08:03.607Z,974.93
2023-10-20T08:09:03.608Z,974.95
2023-10-20T08:10:03.627Z,974.97
2023-10-20T08:11:03.599Z,974.95
2023-10-20T08:12:03.606Z,974.95
2023-10-20T08:13:03.615Z,974.95
2023-10-20T08:14:03.600Z,974.97
2023-10-20T08:15:03.600Z,974.99
2023-10-20T08:16:03.685Z,975.03
2023-10-20T08:17:03.590Z,975.05
2023-10-20T08:18:03.690Z,975.09
2023-10-20T08:19:03.581Z,975.02
2023-10-20T08:20:03.584Z,975.04
2023-10-20T08:21:03.581Z,975.03
2023-10-20T08:22:03.579Z,975.02
2023-10-20T08:23:03.577Z,975.02
2023-10-20T08:24:03.572Z,975.02
2023-10-20T08:25:03.579Z,975.03
2023-10-20T08:26:03.594Z,975.00
2023-10-20T08:27:03.570Z,975.03
2023-10-20T08:28:03.561Z,975.04
2023-10-20T08:29:03.554Z,975.09
2023-10-20T08:30:03.564Z,975.11
2023-10-20T08:31:03.568Z,975.07
2023-10-20T08:32:03.554Z,975.11
2023-10-20T08:33:03.641Z,975.05
2023-10-20T08:34:03.543Z,975.09
2023-10-20T08:35:03.542Z,975.10
2023-10-20T08:36:04.120Z,975.16
2023-10-20T08:37:03.541Z,975.13
2023-10-20T08:38:03.537Z,975.19
2023-10-20T08:39:03.563Z,975.21
2023-10-20T08:40:03.533Z,975.22
2023-10-20T08:41:12.982Z,975.28
2023-10-20T08:42:03.577Z,975.30
2023-10-20T08:43:03.521Z,975.28
2023-10-20T08:44:03.514Z,975.26
2023-10-20T08:45:03.521Z,975.27
2023-10-20T08:46:03.566Z,975.19
2023-10-20T08:47:03.515Z,975.22
2023-10-20T08:48:03.591Z,975.21
2023-10-20T08:49:03.513Z,975.18
2023-10-20T08:50:03.529Z,975.19
2023-10-20T08:51:03.512Z,975.21
2023-10-20T08:52:03.523Z,975.18
2023-10-20T08:53:03.503Z,975.17
2023-10-20T08:54:03.518Z,975.19
2023-10-20T08:55:03.490Z,975.20
2023-10-20T08:56:03.486Z,975.18
2023-10-20T08:57:03.486Z,975.21
2023-10-20T08:58:03.507Z,975.17
2023-10-20T08:59:03.488Z,975.14
2023-10-20T09:00:03.491Z,975.13
2023-10-20T09:01:03.540Z,975.10
2023-10-20T09:02:03.559Z,975.08
2023-10-20T09:03:03.594Z,975.05
2023-10-20T09:04:03.539Z,975.05
2023-10-20T09:05:03.479Z,975.12
2023-10-20T09:06:03.484Z,975.10
2023-10-20T09:07:04.111Z,975.15
2023-10-20T09:08:03.462Z,975.17
2023-10-20T09:09:03.466Z,975.17
2023-10-20T09:10:03.479Z,975.20
2023-10-20T09:11:03.465Z,975.22
2023-10-20T09:12:03.455Z,975.18
2023-10-20T09:13:03.458Z,975.13
2023-10-20T09:14:03.468Z,975.19
2023-10-20T09:15:03.469Z,975.14
2023-10-20T09:16:03.508Z,975.12
2023-10-20T09:17:03.442Z,975.12
2023-10-20T09:18:03.622Z,975.13
2023-10-20T09:19:03.435Z,975.09
2023-10-20T09:20:03.440Z,975.09
2023-10-20T09:21:03.441Z,975.08
2023-10-20T09:22:03.436Z,975.06
2023-10-20T09:23:03.425Z,975.05
2023-10-20T09:24:03.468Z,975.05
2023-10-20T09:25:03.805Z,975.11
2023-10-20T09:26:04.355Z,975.16
2023-10-20T09:28:03.426Z,975.20
2023-10-20T09:29:03.409Z,975.27
2023-10-20T09:30:03.435Z,975.24
2023-10-20T09:31:03.438Z,975.26
2023-10-20T09:32:03.414Z,975.29
2023-10-20T09:33:03.440Z,975.28
2023-10-20T09:34:03.422Z,975.23
2023-10-20T09:35:03.391Z,975.18
2023-10-20T09:36:03.413Z,975.21
2023-10-20T09:37:03.393Z,975.19
2023-10-20T09:38:03.389Z,975.21
2023-10-20T09:39:03.403Z,975.21
2023-10-20T09:40:03.390Z,975.19
2023-10-20T09:41:03.384Z,975.18
2023-10-20T09:42:03.391Z,975.18
2023-10-20T09:43:14.926Z,975.19
2023-10-20T09:44:03.406Z,975.19
2023-10-20T09:45:03.417Z,975.18
2023-10-20T09:46:03.399Z,975.18
2023-10-20T09:47:03.422Z,975.17
2023-10-20T09:48:03.479Z,975.22
2023-10-20T09:49:03.364Z,975.16
2023-10-20T09:50:03.357Z,975.16
2023-10-20T09:51:03.363Z,975.22
2023-10-20T09:52:03.357Z,975.23
2023-10-20T09:53:03.357Z,975.25
2023-10-20T09:54:03.357Z,975.23
2023-10-20T09:55:03.356Z,975.20
2023-10-20T09:56:03.361Z,975.17
2023-10-20T09:57:03.353Z,975.16
2023-10-20T09:58:03.337Z,975.18
2023-10-20T09:59:03.836Z,975.11
2023-10-20T10:00:03.401Z,975.07
2023-10-20T10:01:03.403Z,975.13
2023-10-20T10:02:03.420Z,975.08
2023-10-20T10:03:03.477Z,975.14
2023-10-20T10:04:03.388Z,975.15
2023-10-20T10:05:03.322Z,975.09
2023-10-20T10:06:03.328Z,975.09
2023-10-20T10:07:03.326Z,975.10
2023-10-20T10:08:03.328Z,975.10
2023-10-20T10:09:03.311Z,975.08
2023-10-20T10:10:04.444Z,975.08
2023-10-20T10:11:03.325Z,975.06
2023-10-20T10:12:03.303Z,975.06
2023-10-20T10:13:03.298Z,975.04
2023-10-20T10:14:03.304Z,975.01
2023-10-20T10:15:03.354Z,974.99
2023-10-20T10:16:03.297Z,975.01
2023-10-20T10:17:03.306Z,974.98
2023-10-20T10:18:03.389Z,974.96
2023-10-20T10:19:03.293Z,974.93
2023-10-20T10:20:03.431Z,974.86
2023-10-20T10:21:05.119Z,974.89
2023-10-20T10:22:03.286Z,974.89
2023-10-20T10:23:03.274Z,974.83
2023-10-20T10:24:03.273Z,974.86
2023-10-20T10:25:03.301Z,974.84
2023-10-20T10:26:03.276Z,974.80
2023-10-20T10:27:03.416Z,974.79
2023-10-20T10:28:03.262Z,974.76
2023-10-20T10:29:03.263Z,974.80
2023-10-20T10:30:03.450Z,974.72
2023-10-20T10:31:03.301Z,974.76
2023-10-20T10:32:09.857Z,974.71
2023-10-20T10:33:03.320Z,974.67
2023-10-20T10:34:03.293Z,974.64
2023-10-20T10:35:03.328Z,974.67
2023-10-20T10:36:03.284Z,974.64
2023-10-20T10:37:03.292Z,974.66
2023-10-20T10:38:03.257Z,974.64
2023-10-20T10:39:03.256Z,974.70
2023-10-20T10:40:03.225Z,974.66
2023-10-20T10:41:03.230Z,974.66
2023-10-20T10:42:03.219Z,974.64
2023-10-20T10:43:03.227Z,974.61
2023-10-20T10:44:03.229Z,974.60
2023-10-20T10:45:03.222Z,974.60
2023-10-20T10:46:03.274Z,974.55
2023-10-20T10:47:03.213Z,974.53
2023-10-20T10:48:03.306Z,974.45
2023-10-20T10:49:03.214Z,974.44
2023-10-20T10:50:03.244Z,974.42
2023-10-20T10:51:03.251Z,974.35
2023-10-20T10:52:03.204Z,974.36
2023-10-20T10:53:03.218Z,974.25
2023-10-20T10:54:03.201Z,974.22
2023-10-20T10:55:03.198Z,974.21
2023-10-20T10:56:03.221Z,974.20
2023-10-20T10:57:04.677Z,974.18
2023-10-20T10:58:03.180Z,974.13
2023-10-20T10:59:03.183Z,974.13
2023-10-20T11:00:03.179Z,974.16
2023-10-20T11:01:03.420Z,974.14
2023-10-20T11:02:04.521Z,974.11
2023-10-20T11:03:03.316Z,974.08
2023-10-20T11:04:03.281Z,974.06
2023-10-20T11:05:03.220Z,974.06
2023-10-20T11:06:03.205Z,974.08
2023-10-20T11:07:03.165Z,974.04
2023-10-20T11:08:03.170Z,974.06
2023-10-20T11:09:03.243Z,974.06
2023-10-20T11:10:03.178Z,974.08
2023-10-20T11:11:03.160Z,974.14
2023-10-20T11:12:03.153Z,974.12
2023-10-20T11:13:03.150Z,974.17
2023-10-20T11:14:03.147Z,974.18
2023-10-20T11:15:03.199Z,974.14
2023-10-20T11:16:03.142Z,974.16
2023-10-20T11:17:03.150Z,974.12
2023-10-20T11:18:03.216Z,974.08
2023-10-20T11:19:03.130Z,973.99
2023-10-20T11:20:03.133Z,973.99
2023-10-20T11:21:03.205Z,974.02
2023-10-20T11:22:03.155Z,973.99
2023-10-20T11:23:03.129Z,974.01
2023-10-20T11:24:03.128Z,974.03
2023-10-20T11:25:03.131Z,974.07
2023-10-20T11:26:03.169Z,974.13
2023-10-20T11:27:03.144Z,974.14
2023-10-20T11:28:03.115Z,974.16
2023-10-20T11:29:03.116Z,974.10
2023-10-20T11:30:03.194Z,974.06
2023-10-20T11:31:03.154Z,974.00
2023-10-20T11:32:03.112Z,973.97
2023-10-20T11:33:03.157Z,973.89
2023-10-20T11:34:03.098Z,973.87
2023-10-20T11:35:03.100Z,973.82
2023-10-20T11:36:03.094Z,973.79
2023-10-20T11:37:03.091Z,973.76
2023-10-20T11:38:03.114Z,973.74
2023-10-20T11:39:03.091Z,973.71
2023-10-20T11:40:03.090Z,973.71
2023-10-20T11:41:03.086Z,973.72
2023-10-20T11:42:03.084Z,973.73
2023-10-20T11:43:03.090Z,973.71
2023-10-20T11:44:03.090Z,973.71
2023-10-20T11:45:03.085Z,973.70
2023-10-20T11:46:03.075Z,973.69
2023-10-20T11:47:03.076Z,973.68
2023-10-20T11:48:03.159Z,973.68
2023-10-20T11:49:03.069Z,973.71
2023-10-20T11:50:03.067Z,973.68
2023-10-20T11:51:03.123Z,973.72
2023-10-20T11:52:03.087Z,973.74
2023-10-20T11:53:03.061Z,973.77
2023-10-20T11:54:03.081Z,973.75
2023-10-20T11:55:03.060Z,973.76
2023-10-20T11:56:03.055Z,973.75
2023-10-20T11:57:03.181Z,973.76
2023-10-20T11:58:03.049Z,973.69
2023-10-20T11:59:03.063Z,973.73
2023-10-20T12:00:03.045Z,973.71
2023-10-20T12:01:03.038Z,973.72
2023-10-20T12:02:03.072Z,973.72
2023-10-20T12:03:03.260Z,973.76
2023-10-20T12:04:03.119Z,973.76
2023-10-20T12:05:03.040Z,973.75
2023-10-20T12:06:03.036Z,973.74
2023-10-20T12:07:03.035Z,973.67
2023-10-20T12:08:03.027Z,973.69
2023-10-20T12:09:03.025Z,973.67
2023-10-20T12:10:03.045Z,973.62
2023-10-20T12:11:03.027Z,973.57
2023-10-20T12:12:03.042Z,973.58
2023-10-20T12:13:03.037Z,973.56
2023-10-20T12:14:03.009Z,973.59
2023-10-20T12:15:03.075Z,973.57
2023-10-20T12:16:03.010Z,973.56
2023-10-20T12:17:03.029Z,973.58
2023-10-20T12:18:03.062Z,973.56
2023-10-20T12:19:03.005Z,973.55
2023-10-20T12:20:02.989Z,973.56
2023-10-20T12:21:02.998Z,973.56
2023-10-20T12:22:02.996Z,973.50
2023-10-20T12:23:02.992Z,973.50
2023-10-20T12:24:02.999Z,973.49
2023-10-20T12:25:02.995Z,973.45
2023-10-20T12:26:03.013Z,973.45
2023-10-20T12:27:02.985Z,973.41
2023-10-20T12:28:02.999Z,973.42
2023-10-20T12:29:02.991Z,973.40
2023-10-20T12:30:03.018Z,973.39